FNLU

Quatro de Fevereiro Airport

Luanda, Angola
METAR FNLU 190300Z 18005KT 9000 BKN022 26/23 Q1010
Observed Flight Rules
Jan-19 @ 03:00 UTC (49 minutes ago) Marginal Visual Flight Rules
Wind Visibility Clouds
180° at 5 knots 8,996 meters
  • Broken at 2,200' AGL
Temperatures Readings
Current 26°C / 79°F
Dewpoint 23°C / 73°F
Humidity 84%
Altimeter 29.82" Hg
Pressure 1010 hPa
Elevation 70
METAR FNLU 190300Z 18005KT 9000 BKN022 26/23 Q1010
Observed Flight Rules
Jan-19 @ 03:00 UTC
(49 minutes ago)
MVFR
Wind Visibility
180° at 5 knots 8,996 meters
Clouds
  • Broken at 2,200' AGL
Temperature Dewpoint
26°C / 79°F 23°C / 73°F
Humidity Altimeter Pressure
84% 29.82" Hg 1010 hPa